Terminal Aerodrome Forecast
Issued by NWS St Louis, MO

Home | Current Version | Previous Version | Graphics & Text | Print | Product List | Glossary On
Versions: 1 2 3 4 5 6 7 8 9 10 11 12 13 14 15 16 17 18 19 20 21 22 23 24 25 26 27 28 29 30 31 32
000
FTUS43 KLSX 270400 AAB
TAFSTL
TAF AMD
KSTL 270418Z 2704/2806 34009KT 2SM -DZSN BR OVC007
      TEMPO 2704/2706 1SM -SN BR OVC003
     FM270600 32012G18KT 4SM -SN BR OVC007
     FM271200 31010KT P6SM OVC015
     FM271800 31010KT P6SM SCT025 BKN250=

USA.gov is the U.S. government's official web portal to all federal, state and local government web resources and services.